createdAt,value
2023-04-26T00:00:05.329Z,27.70
2023-04-26T00:00:36.901Z,27.72
2023-04-26T00:01:08.517Z,27.65
2023-04-26T00:01:40.101Z,27.72
2023-04-26T00:02:11.819Z,27.77
2023-04-26T00:02:43.349Z,27.67
2023-04-26T00:03:14.963Z,27.63
2023-04-26T00:03:46.871Z,27.71
2023-04-26T00:04:18.881Z,27.73
2023-04-26T00:04:53.801Z,27.72
2023-04-26T00:05:25.634Z,27.79
2023-04-26T00:05:57.304Z,27.78
2023-04-26T00:06:28.889Z,27.77
2023-04-26T00:07:00.513Z,27.72
2023-04-26T00:07:32.101Z,27.75
2023-04-26T00:08:03.645Z,27.80
2023-04-26T00:08:35.517Z,27.68
2023-04-26T00:09:07.074Z,27.81
2023-04-26T00:09:38.628Z,27.79
2023-04-26T00:10:10.425Z,27.76
2023-04-26T00:10:42.100Z,27.54
2023-04-26T00:11:13.671Z,27.73
2023-04-26T00:11:45.303Z,27.68
2023-04-26T00:12:16.932Z,27.78
2023-04-26T00:12:51.351Z,27.59
2023-04-26T00:13:23.008Z,27.78
2023-04-26T00:13:54.524Z,27.79
2023-04-26T00:14:25.975Z,27.81
2023-04-26T00:14:57.532Z,27.74
2023-04-26T00:15:29.198Z,27.82
2023-04-26T00:16:00.742Z,27.72
2023-04-26T00:16:32.153Z,27.79
2023-04-26T00:17:03.758Z,27.72
2023-04-26T00:17:35.472Z,27.75
2023-04-26T00:18:07.129Z,27.72
2023-04-26T00:18:38.757Z,27.84
2023-04-26T00:19:10.339Z,27.76
2023-04-26T00:19:41.929Z,27.70
2023-04-26T00:20:13.573Z,27.73
2023-04-26T00:20:45.383Z,27.71
2023-04-26T00:21:16.927Z,27.75
2023-04-26T00:21:48.542Z,27.73
2023-04-26T00:22:20.210Z,27.65
2023-04-26T00:22:51.807Z,27.68
2023-04-26T00:23:23.395Z,27.70
2023-04-26T00:23:55.028Z,27.91
2023-04-26T00:24:26.628Z,27.78
2023-04-26T00:24:58.181Z,27.73
2023-04-26T00:25:29.801Z,27.67
2023-04-26T00:26:01.405Z,27.70
2023-04-26T00:26:33.018Z,27.63
2023-04-26T00:27:04.618Z,27.79
2023-04-26T00:27:36.176Z,27.76
2023-04-26T00:28:07.850Z,27.79
2023-04-26T00:28:39.454Z,27.72
2023-04-26T00:29:11.048Z,27.67
2023-04-26T00:29:42.618Z,27.79
2023-04-26T00:30:14.489Z,27.88
2023-04-26T00:30:46.111Z,27.74
2023-04-26T00:31:17.886Z,27.75
2023-04-26T00:31:49.704Z,27.72
2023-04-26T00:32:21.330Z,27.81
2023-04-26T00:32:52.996Z,27.69
2023-04-26T00:33:24.892Z,27.74
2023-04-26T00:33:56.435Z,27.66
2023-04-26T00:34:34.384Z,27.62
2023-04-26T00:35:06.211Z,27.74
2023-04-26T00:35:37.785Z,27.74
2023-04-26T00:36:09.215Z,27.78
2023-04-26T00:36:40.792Z,27.80
2023-04-26T00:37:12.933Z,27.82
2023-04-26T00:37:44.643Z,27.75
2023-04-26T00:38:16.287Z,27.68
2023-04-26T00:38:47.820Z,27.87
2023-04-26T00:39:19.316Z,27.88
2023-04-26T00:39:50.852Z,27.81
2023-04-26T00:40:22.491Z,27.80
2023-04-26T00:40:54.056Z,27.81
2023-04-26T00:41:25.815Z,27.78
2023-04-26T00:41:57.679Z,27.94
2023-04-26T00:42:29.322Z,27.98
2023-04-26T00:43:00.964Z,27.82
2023-04-26T00:43:32.569Z,27.84
2023-04-26T00:44:04.267Z,27.72
2023-04-26T00:44:35.718Z,27.84
2023-04-26T00:45:07.601Z,27.81
2023-04-26T00:45:39.281Z,27.87
2023-04-26T00:46:10.945Z,27.66
2023-04-26T00:46:42.674Z,27.94
2023-04-26T00:47:14.298Z,27.72
2023-04-26T00:47:46.059Z,27.70
2023-04-26T00:48:17.676Z,27.86
2023-04-26T00:48:49.294Z,27.73
2023-04-26T00:49:21.650Z,27.78
2023-04-26T00:49:53.244Z,27.81
2023-04-26T00:50:24.718Z,27.79
2023-04-26T00:50:56.396Z,27.89
2023-04-26T00:51:27.948Z,27.97
2023-04-26T00:51:59.652Z,27.86
2023-04-26T00:52:31.287Z,27.85
2023-04-26T00:53:02.896Z,27.93
2023-04-26T00:53:34.512Z,27.88
2023-04-26T00:54:06.120Z,27.81
2023-04-26T00:54:37.719Z,27.71
2023-04-26T00:55:09.427Z,27.90
2023-04-26T00:55:41.327Z,27.97
2023-04-26T00:56:13.007Z,27.89
2023-04-26T00:56:44.734Z,27.83
2023-04-26T00:57:16.376Z,27.90
2023-04-26T00:57:47.984Z,27.90
2023-04-26T00:58:19.679Z,27.92
2023-04-26T00:58:51.143Z,27.97
2023-04-26T00:59:22.950Z,27.90
2023-04-26T00:59:54.540Z,27.86
2023-04-26T01:00:26.272Z,27.93
2023-04-26T01:00:57.871Z,27.90
2023-04-26T01:01:29.396Z,27.70
2023-04-26T01:02:01.009Z,27.93
2023-04-26T01:02:32.877Z,27.77
2023-04-26T01:03:04.619Z,27.83
2023-04-26T01:03:36.288Z,27.90
2023-04-26T01:04:07.974Z,27.60
2023-04-26T01:04:39.632Z,27.91
2023-04-26T01:05:11.257Z,27.94
2023-04-26T01:05:42.860Z,27.80
2023-04-26T01:06:14.494Z,27.90
2023-04-26T01:06:46.180Z,27.80
2023-04-26T01:07:17.748Z,27.77
2023-04-26T01:07:49.419Z,27.80
2023-04-26T01:08:21.164Z,27.89
2023-04-26T01:08:53.080Z,27.83
2023-04-26T01:09:24.591Z,27.94
2023-04-26T01:09:56.043Z,27.78
2023-04-26T01:10:27.682Z,27.79
2023-04-26T01:10:59.298Z,27.91
2023-04-26T01:11:31.270Z,27.81
2023-04-26T01:12:03.030Z,27.76
2023-04-26T01:12:34.580Z,27.87
2023-04-26T01:13:06.552Z,27.79
2023-04-26T01:13:38.222Z,27.91
2023-04-26T01:14:09.817Z,27.80
2023-04-26T01:14:41.483Z,27.82
2023-04-26T01:15:13.023Z,27.88
2023-04-26T01:15:47.163Z,27.84
2023-04-26T01:16:19.257Z,27.83
2023-04-26T01:16:50.963Z,27.89
2023-04-26T01:17:22.739Z,27.91
2023-04-26T01:17:54.372Z,27.79
2023-04-26T01:18:26.030Z,27.76
2023-04-26T01:18:57.580Z,27.73
2023-04-26T01:19:29.073Z,27.73
2023-04-26T01:20:00.780Z,27.76
2023-04-26T01:20:32.363Z,27.73
2023-04-26T01:21:03.998Z,27.91
2023-04-26T01:21:35.666Z,27.84
2023-04-26T01:22:07.268Z,27.77
2023-04-26T01:22:38.913Z,27.78
2023-04-26T01:23:10.533Z,27.74
2023-04-26T01:23:42.133Z,27.83
2023-04-26T01:24:13.767Z,27.75
2023-04-26T01:24:45.821Z,27.81
2023-04-26T01:25:17.490Z,27.91
2023-04-26T01:25:49.196Z,27.95
2023-04-26T01:26:20.798Z,27.83
2023-04-26T01:26:52.463Z,27.82
2023-04-26T01:27:24.100Z,27.79
2023-04-26T01:27:55.732Z,27.80
2023-04-26T01:28:27.284Z,27.92
2023-04-26T01:28:58.915Z,27.82
2023-04-26T01:29:30.521Z,27.81
2023-04-26T01:30:02.273Z,27.91
2023-04-26T01:30:33.831Z,27.88
2023-04-26T01:31:05.606Z,27.87
2023-04-26T01:31:37.637Z,27.82
2023-04-26T01:32:09.376Z,27.90
2023-04-26T01:32:40.983Z,27.83
2023-04-26T01:33:12.542Z,27.74
2023-04-26T01:33:44.126Z,27.89
2023-04-26T01:34:15.797Z,27.85
2023-04-26T01:34:47.400Z,27.78
2023-04-26T01:35:19.058Z,27.75
2023-04-26T01:35:50.729Z,27.87
2023-04-26T01:36:22.409Z,27.84
2023-04-26T01:36:54.013Z,27.88
2023-04-26T01:37:25.664Z,27.93
2023-04-26T01:37:57.318Z,27.74
2023-04-26T01:38:28.965Z,27.78
2023-04-26T01:39:00.577Z,27.77
2023-04-26T01:39:32.166Z,27.70
2023-04-26T01:40:03.846Z,27.77
2023-04-26T01:40:35.419Z,27.83
2023-04-26T01:41:07.114Z,27.77
2023-04-26T01:41:38.686Z,27.74
2023-04-26T01:42:10.364Z,27.65
2023-04-26T01:42:41.950Z,27.85
2023-04-26T01:43:13.596Z,27.75
2023-04-26T01:43:45.207Z,27.76
2023-04-26T01:44:16.867Z,27.78
2023-04-26T01:44:48.593Z,27.83
2023-04-26T01:45:20.216Z,27.99
2023-04-26T01:45:51.851Z,27.91
2023-04-26T01:46:23.503Z,27.86
2023-04-26T01:46:55.205Z,27.74
2023-04-26T01:47:26.874Z,27.75
2023-04-26T01:47:58.638Z,27.76
2023-04-26T01:48:30.346Z,27.77
2023-04-26T01:49:01.948Z,27.78
2023-04-26T01:49:33.591Z,27.71
2023-04-26T01:50:05.699Z,27.69
2023-04-26T01:50:37.456Z,27.83
2023-04-26T01:51:09.165Z,27.84
2023-04-26T01:51:40.772Z,27.89
2023-04-26T01:52:12.462Z,27.75
2023-04-26T01:52:44.043Z,27.70
2023-04-26T01:53:15.665Z,27.69
2023-04-26T01:53:47.555Z,27.65
2023-04-26T01:54:19.239Z,27.75
2023-04-26T01:54:50.868Z,27.76
2023-04-26T01:55:22.539Z,27.71
2023-04-26T01:55:54.225Z,27.87
2023-04-26T01:56:25.819Z,27.71
2023-04-26T01:56:57.429Z,27.76
2023-04-26T01:57:28.952Z,27.75
2023-04-26T01:58:00.594Z,27.74
2023-04-26T01:58:32.224Z,27.82
2023-04-26T01:59:04.016Z,27.75
2023-04-26T01:59:35.587Z,27.74
2023-04-26T02:00:07.610Z,27.77
2023-04-26T02:00:39.193Z,27.66
2023-04-26T02:01:10.856Z,27.76
2023-04-26T02:01:42.510Z,27.78
2023-04-26T02:02:14.229Z,27.87
2023-04-26T02:02:46.027Z,27.67
2023-04-26T02:03:17.774Z,27.73
2023-04-26T02:03:49.600Z,27.65
2023-04-26T02:04:21.472Z,27.74
2023-04-26T02:04:53.191Z,27.75
2023-04-26T02:05:24.995Z,27.76
2023-04-26T02:05:56.707Z,27.66
2023-04-26T02:06:28.374Z,27.75
2023-04-26T02:07:00.151Z,27.78
2023-04-26T02:07:31.804Z,27.76
2023-04-26T02:08:03.533Z,27.77
2023-04-26T02:08:35.579Z,27.81
2023-04-26T02:09:07.158Z,27.74
2023-04-26T02:09:38.699Z,27.66
2023-04-26T02:10:10.402Z,27.71
2023-04-26T02:10:42.020Z,27.89
2023-04-26T02:11:13.725Z,27.79
2023-04-26T02:11:45.409Z,27.57
2023-04-26T02:12:17.001Z,27.84
2023-04-26T02:12:48.640Z,27.80
2023-04-26T02:13:20.333Z,27.62
2023-04-26T02:13:51.882Z,27.76
2023-04-26T02:14:23.505Z,27.68
2023-04-26T02:14:55.105Z,27.78
2023-04-26T02:15:26.609Z,27.71
2023-04-26T02:15:58.178Z,27.81
2023-04-26T02:16:29.958Z,27.57
2023-04-26T02:17:01.624Z,27.77
2023-04-26T02:17:33.280Z,27.76
2023-04-26T02:18:04.915Z,27.85
2023-04-26T02:18:36.840Z,27.88
2023-04-26T02:19:08.527Z,27.72
2023-04-26T02:19:40.314Z,27.77
2023-04-26T02:20:12.187Z,27.72
2023-04-26T02:20:43.740Z,27.72
2023-04-26T02:21:16.737Z,27.69
2023-04-26T02:21:51.820Z,27.70
2023-04-26T02:22:23.648Z,27.73
2023-04-26T02:22:54.927Z,27.63
2023-04-26T02:23:26.387Z,27.76
2023-04-26T02:23:58.077Z,27.51
2023-04-26T02:24:30.311Z,27.68
2023-04-26T02:25:02.970Z,27.64
2023-04-26T02:25:34.529Z,27.80
2023-04-26T02:26:06.499Z,27.63
2023-04-26T02:26:38.148Z,27.78
2023-04-26T02:27:09.859Z,27.82
2023-04-26T02:27:41.342Z,27.76
2023-04-26T02:28:13.047Z,27.75
2023-04-26T02:28:44.696Z,27.65
2023-04-26T02:29:16.354Z,27.62
2023-04-26T02:29:48.002Z,27.78
2023-04-26T02:30:19.573Z,27.61
2023-04-26T02:30:51.176Z,27.71
2023-04-26T02:31:23.294Z,27.65
2023-04-26T02:31:54.923Z,27.82
2023-04-26T02:32:26.641Z,27.62
2023-04-26T02:32:58.293Z,27.61
2023-04-26T02:33:29.986Z,27.73
2023-04-26T02:34:01.601Z,27.65
2023-04-26T02:34:33.236Z,27.68
2023-04-26T02:35:04.913Z,27.67
2023-04-26T02:35:36.642Z,27.61
2023-04-26T02:36:08.448Z,27.62
2023-04-26T02:36:40.205Z,27.53
2023-04-26T02:37:11.779Z,27.61
2023-04-26T02:37:43.353Z,27.74
2023-04-26T02:38:14.988Z,27.59
2023-04-26T02:38:46.591Z,27.58
2023-04-26T02:39:18.157Z,27.89
2023-04-26T02:39:50.258Z,27.65
2023-04-26T02:40:21.892Z,27.76
2023-04-26T02:40:59.926Z,27.75
2023-04-26T02:41:31.806Z,27.53
2023-04-26T02:42:03.468Z,27.57
2023-04-26T02:42:35.088Z,27.49
2023-04-26T02:43:06.736Z,27.72
2023-04-26T02:43:38.370Z,27.74
2023-04-26T02:44:10.173Z,27.67
2023-04-26T02:44:41.755Z,27.65
2023-04-26T02:45:13.437Z,27.55
2023-04-26T02:45:44.981Z,27.65
2023-04-26T02:46:17.433Z,27.63
2023-04-26T02:46:49.240Z,27.47
2023-04-26T02:47:20.957Z,27.56
2023-04-26T02:47:52.511Z,27.68
2023-04-26T02:48:24.446Z,27.76
2023-04-26T02:48:56.011Z,27.55
2023-04-26T02:49:27.649Z,27.76
2023-04-26T02:49:59.355Z,27.64
2023-04-26T02:50:30.947Z,27.64
2023-04-26T02:51:02.562Z,27.60
2023-04-26T02:51:34.200Z,27.74
2023-04-26T02:52:05.869Z,27.53
2023-04-26T02:52:37.418Z,27.56
2023-04-26T02:53:09.000Z,27.63
2023-04-26T02:53:40.744Z,27.72
2023-04-26T02:54:12.386Z,27.63
2023-04-26T02:54:44.027Z,27.71
2023-04-26T02:55:15.641Z,27.69
2023-04-26T02:55:47.237Z,27.49
2023-04-26T02:56:18.847Z,27.56
2023-04-26T02:56:50.455Z,27.40
2023-04-26T02:57:22.080Z,27.60
2023-04-26T02:57:53.707Z,27.65
2023-04-26T02:58:25.287Z,27.52
2023-04-26T02:58:57.019Z,27.51
2023-04-26T02:59:29.444Z,27.51
2023-04-26T03:00:00.950Z,27.55
2023-04-26T03:00:32.420Z,27.68
2023-04-26T03:01:04.096Z,27.55
2023-04-26T03:01:35.794Z,27.65
2023-04-26T03:02:07.544Z,27.67
2023-04-26T03:02:39.578Z,27.67
2023-04-26T03:03:11.342Z,27.58
2023-04-26T03:03:43.122Z,27.73
2023-04-26T03:04:14.999Z,27.75
2023-04-26T03:04:46.690Z,27.66
2023-04-26T03:05:18.362Z,27.76
2023-04-26T03:05:50.095Z,27.71
2023-04-26T03:06:21.692Z,27.69
2023-04-26T03:06:53.311Z,27.65
2023-04-26T03:07:24.838Z,27.58
2023-04-26T03:07:56.341Z,27.59
2023-04-26T03:08:28.011Z,27.58
2023-04-26T03:08:59.684Z,27.68
2023-04-26T03:09:31.226Z,27.56
2023-04-26T03:10:02.866Z,27.66
2023-04-26T03:10:34.426Z,27.68
2023-04-26T03:11:38.533Z,27.55
2023-04-26T03:12:09.847Z,27.66
2023-04-26T03:12:41.246Z,27.50
2023-04-26T03:13:12.593Z,27.65
2023-04-26T03:13:43.933Z,27.57
2023-04-26T03:14:15.230Z,27.55
2023-04-26T03:14:46.505Z,27.65
2023-04-26T03:15:17.863Z,27.68
2023-04-26T03:15:49.161Z,27.66
2023-04-26T03:16:20.479Z,27.78
2023-04-26T03:16:51.965Z,27.57
2023-04-26T03:17:23.341Z,27.67
2023-04-26T03:17:54.737Z,27.68
2023-04-26T03:18:26.046Z,27.56
2023-04-26T03:18:57.391Z,27.58
2023-04-26T03:19:28.700Z,27.58
2023-04-26T03:20:02.379Z,27.61
2023-04-26T03:20:34.134Z,27.67
2023-04-26T03:21:08.074Z,27.71
2023-04-26T03:21:39.380Z,27.64
2023-04-26T03:22:10.702Z,27.54
2023-04-26T03:22:41.972Z,27.59
2023-04-26T03:23:13.302Z,27.61
2023-04-26T03:23:44.591Z,27.81
2023-04-26T03:24:15.900Z,27.62
2023-04-26T03:24:47.228Z,27.67
2023-04-26T03:25:18.533Z,27.59
2023-04-26T03:25:49.836Z,27.71
2023-04-26T03:26:21.169Z,27.69
2023-04-26T03:26:52.502Z,27.70
2023-04-26T03:27:23.911Z,27.66
2023-04-26T03:27:55.272Z,27.58
2023-04-26T03:28:26.611Z,27.59
2023-04-26T03:28:57.899Z,27.52
2023-04-26T03:29:29.323Z,27.52
2023-04-26T03:30:00.668Z,27.43
2023-04-26T03:30:31.964Z,27.58
2023-04-26T03:31:03.353Z,27.47
2023-04-26T03:31:34.678Z,27.52
2023-04-26T03:32:06.000Z,27.70
2023-04-26T03:32:37.360Z,27.55
2023-04-26T03:33:08.726Z,27.40
2023-04-26T03:33:40.048Z,27.50
2023-04-26T03:34:11.353Z,27.57
2023-04-26T03:34:42.680Z,27.49
2023-04-26T03:35:13.978Z,27.61
2023-04-26T03:35:45.300Z,27.65
2023-04-26T03:36:16.794Z,27.67
2023-04-26T03:36:48.094Z,27.52
2023-04-26T03:37:19.430Z,27.55
2023-04-26T03:37:53.158Z,27.57
2023-04-26T03:38:24.782Z,27.53
2023-04-26T03:38:56.105Z,27.55
2023-04-26T03:39:27.417Z,27.67
2023-04-26T03:39:58.725Z,27.58
2023-04-26T03:40:30.033Z,27.52
2023-04-26T03:41:01.405Z,27.63
2023-04-26T03:41:32.773Z,27.70
2023-04-26T03:42:04.123Z,27.55
2023-04-26T03:42:35.882Z,27.56
2023-04-26T03:43:07.210Z,27.47
2023-04-26T03:43:38.505Z,27.54
2023-04-26T03:44:09.801Z,27.58
2023-04-26T03:44:41.157Z,27.64
2023-04-26T03:45:12.457Z,27.47
2023-04-26T03:45:46.399Z,27.52
2023-04-26T03:46:17.762Z,27.55
2023-04-26T03:46:49.128Z,27.46
2023-04-26T03:47:20.466Z,27.39
2023-04-26T03:47:51.832Z,27.38
2023-04-26T03:48:23.169Z,27.57
2023-04-26T03:48:54.657Z,27.46
2023-04-26T03:49:26.072Z,27.49
2023-04-26T03:49:57.530Z,27.51
2023-04-26T03:50:28.854Z,27.58
2023-04-26T03:51:00.121Z,27.63
2023-04-26T03:51:31.462Z,27.52
2023-04-26T03:52:02.834Z,27.59
2023-04-26T03:52:34.161Z,27.61
2023-04-26T03:53:05.525Z,27.55
2023-04-26T03:53:36.847Z,27.59
2023-04-26T03:54:08.216Z,27.64
2023-04-26T03:54:39.552Z,27.63
2023-04-26T03:55:10.902Z,27.67
2023-04-26T03:55:42.252Z,27.61
2023-04-26T03:56:13.551Z,27.58
2023-04-26T03:56:44.974Z,27.76
2023-04-26T03:57:16.334Z,27.62
2023-04-26T03:57:47.852Z,27.57
2023-04-26T03:58:19.157Z,27.61
2023-04-26T03:58:50.669Z,27.37
2023-04-26T03:59:22.191Z,27.50
2023-04-26T03:59:53.562Z,27.54
2023-04-26T04:00:24.850Z,27.58
2023-04-26T04:00:56.474Z,27.56
2023-04-26T04:01:27.802Z,27.59
2023-04-26T04:01:59.170Z,27.42
2023-04-26T04:02:30.725Z,27.53
2023-04-26T04:03:02.249Z,27.54
2023-04-26T04:03:33.862Z,27.83
2023-04-26T04:04:05.462Z,27.51
2023-04-26T04:04:37.049Z,27.53
2023-04-26T04:05:08.582Z,27.54
2023-04-26T04:05:40.022Z,27.64
2023-04-26T04:06:11.350Z,27.56
2023-04-26T04:06:42.661Z,27.62
2023-04-26T04:07:13.980Z,27.30
2023-04-26T04:07:45.310Z,27.63
2023-04-26T04:08:16.625Z,27.43
2023-04-26T04:08:47.945Z,27.56
2023-04-26T04:09:19.229Z,27.55
2023-04-26T04:09:50.550Z,27.49
2023-04-26T04:10:22.177Z,27.40
2023-04-26T04:10:53.544Z,27.43
2023-04-26T04:11:24.846Z,27.49
2023-04-26T04:11:56.209Z,27.53
2023-04-26T04:12:27.547Z,27.57
2023-04-26T04:12:58.838Z,27.60
2023-04-26T04:13:30.223Z,27.46
2023-04-26T04:14:01.559Z,27.36
2023-04-26T04:14:32.852Z,27.54
2023-04-26T04:15:04.436Z,27.48
2023-04-26T04:15:35.787Z,27.38
2023-04-26T04:16:07.174Z,27.43
2023-04-26T04:16:38.741Z,27.55
2023-04-26T04:17:10.067Z,27.42
2023-04-26T04:17:41.391Z,27.35
2023-04-26T04:18:12.766Z,27.49
2023-04-26T04:18:44.102Z,27.51
2023-04-26T04:19:15.410Z,27.54
2023-04-26T04:19:46.701Z,27.49
2023-04-26T04:20:18.073Z,27.50
2023-04-26T04:20:49.371Z,27.53
2023-04-26T04:21:20.649Z,27.66
2023-04-26T04:21:51.974Z,27.48
2023-04-26T04:22:23.289Z,27.49
2023-04-26T04:22:54.637Z,27.56
2023-04-26T04:23:25.970Z,27.79
2023-04-26T04:23:57.325Z,27.49
2023-04-26T04:24:28.646Z,27.65
2023-04-26T04:24:59.965Z,27.51
2023-04-26T04:25:31.263Z,27.57
2023-04-26T04:26:02.571Z,27.58
2023-04-26T04:26:33.864Z,27.63
2023-04-26T04:27:05.203Z,27.53
2023-04-26T04:27:36.798Z,27.54
2023-04-26T04:28:08.110Z,27.59
2023-04-26T04:28:39.791Z,27.46
2023-04-26T04:29:11.082Z,27.51
2023-04-26T04:29:42.418Z,27.49
2023-04-26T04:30:13.861Z,27.36
2023-04-26T04:30:45.175Z,27.43
2023-04-26T04:31:16.629Z,27.62
2023-04-26T04:31:48.042Z,27.46
2023-04-26T04:32:19.571Z,27.57
2023-04-26T04:32:50.952Z,27.66
2023-04-26T04:33:22.249Z,27.42
2023-04-26T04:33:53.585Z,27.56
2023-04-26T04:34:24.925Z,27.49
2023-04-26T04:34:56.439Z,27.53
2023-04-26T04:35:27.747Z,27.58
2023-04-26T04:35:59.075Z,27.44
2023-04-26T04:36:30.377Z,27.55
2023-04-26T04:37:01.729Z,27.52
2023-04-26T04:37:33.108Z,27.56
2023-04-26T04:38:04.571Z,27.57
2023-04-26T04:38:35.852Z,27.44
2023-04-26T04:39:07.135Z,27.45
2023-04-26T04:39:38.464Z,27.52
2023-04-26T04:40:11.514Z,27.63
2023-04-26T04:40:43.136Z,27.45
2023-04-26T04:41:14.473Z,27.57
2023-04-26T04:41:45.836Z,27.61
2023-04-26T04:42:17.145Z,27.53
2023-04-26T04:42:48.471Z,27.46
2023-04-26T04:43:19.813Z,27.43
2023-04-26T04:43:51.122Z,27.43
2023-04-26T04:44:22.427Z,27.48
2023-04-26T04:44:54.040Z,27.37
2023-04-26T04:45:25.341Z,27.56
2023-04-26T04:45:56.641Z,27.48
2023-04-26T04:46:28.039Z,27.50
2023-04-26T04:46:59.538Z,27.52
2023-04-26T04:47:30.986Z,27.58
2023-04-26T04:48:02.372Z,27.64
2023-04-26T04:48:33.731Z,27.57
2023-04-26T04:49:05.084Z,27.54
2023-04-26T04:49:36.442Z,27.52
2023-04-26T04:50:07.924Z,27.53
2023-04-26T04:50:39.405Z,27.47
2023-04-26T04:51:10.753Z,27.59
2023-04-26T04:51:42.050Z,27.46
2023-04-26T04:52:13.367Z,27.51
2023-04-26T04:52:44.758Z,27.37
2023-04-26T04:53:16.146Z,27.47
2023-04-26T04:53:47.513Z,27.56
2023-04-26T04:54:18.837Z,27.51
2023-04-26T04:54:50.163Z,27.55
2023-04-26T04:55:21.498Z,27.54
2023-04-26T04:55:52.849Z,27.41
2023-04-26T04:56:24.252Z,27.51
2023-04-26T04:56:55.561Z,27.48
2023-04-26T04:57:27.073Z,27.52
2023-04-26T04:57:58.399Z,27.59
2023-04-26T04:58:29.688Z,27.66
2023-04-26T04:59:01.070Z,27.53
2023-04-26T04:59:32.403Z,27.54
2023-04-26T05:00:04.286Z,27.50
2023-04-26T05:00:36.255Z,27.61
2023-04-26T05:01:07.574Z,27.65
2023-04-26T05:01:39.081Z,27.63
2023-04-26T05:02:10.605Z,27.64
2023-04-26T05:02:42.182Z,27.86
2023-04-26T05:03:16.864Z,27.63
2023-04-26T05:03:48.610Z,27.61
2023-04-26T05:04:20.168Z,27.67
2023-04-26T05:04:51.820Z,27.58
2023-04-26T05:05:23.197Z,27.73
2023-04-26T05:05:54.512Z,27.68
2023-04-26T05:06:26.723Z,27.63
2023-04-26T05:06:58.044Z,27.68
2023-04-26T05:07:29.411Z,27.57
2023-04-26T05:08:00.764Z,27.52
2023-04-26T05:08:32.068Z,27.68
2023-04-26T05:09:03.460Z,27.79
2023-04-26T05:09:34.958Z,27.58
2023-04-26T05:10:06.507Z,27.71
2023-04-26T05:10:37.858Z,27.77
2023-04-26T05:11:09.145Z,27.65
2023-04-26T05:11:40.484Z,27.61
2023-04-26T05:12:11.824Z,27.72
2023-04-26T05:12:43.115Z,27.72
2023-04-26T05:13:14.441Z,27.67
2023-04-26T05:13:46.155Z,27.41
2023-04-26T05:14:17.466Z,27.58
2023-04-26T05:14:48.806Z,27.78
2023-04-26T05:15:20.089Z,27.68
2023-04-26T05:15:51.414Z,27.69
2023-04-26T05:16:22.811Z,27.66
2023-04-26T05:16:54.313Z,27.54
2023-04-26T05:17:25.668Z,27.57
2023-04-26T05:17:57.050Z,27.79
2023-04-26T05:18:28.391Z,27.58
2023-04-26T05:18:59.777Z,27.63
2023-04-26T05:19:31.164Z,27.66
2023-04-26T05:20:02.599Z,27.66
2023-04-26T05:20:33.912Z,27.66
2023-04-26T05:21:05.296Z,27.59
2023-04-26T05:21:36.651Z,27.66
2023-04-26T05:22:07.954Z,27.60
2023-04-26T05:22:39.315Z,27.71
2023-04-26T05:23:10.617Z,27.53
2023-04-26T05:23:41.950Z,27.69
2023-04-26T05:24:13.260Z,27.67
2023-04-26T05:24:47.698Z,27.70
2023-04-26T05:25:20.249Z,27.53
2023-04-26T05:25:53.562Z,27.55
2023-04-26T05:26:24.861Z,27.66
2023-04-26T05:26:57.792Z,27.75
2023-04-26T05:27:29.219Z,27.61
2023-04-26T05:28:00.523Z,27.58
2023-04-26T05:28:31.835Z,27.57
2023-04-26T05:29:03.175Z,27.76
2023-04-26T05:29:34.522Z,27.77
2023-04-26T05:30:06.276Z,27.61
2023-04-26T05:30:37.729Z,27.70
2023-04-26T05:31:11.243Z,27.83
2023-04-26T05:31:42.948Z,27.61
2023-04-26T05:32:14.292Z,27.55
2023-04-26T05:32:45.762Z,27.72
2023-04-26T05:33:17.236Z,27.62
2023-04-26T05:33:48.558Z,27.49
2023-04-26T05:34:19.923Z,27.67
2023-04-26T05:34:51.236Z,27.63
2023-04-26T05:35:22.844Z,27.65
2023-04-26T05:35:54.248Z,27.72
2023-04-26T05:36:26.430Z,27.72
2023-04-26T05:36:59.291Z,27.75
2023-04-26T05:37:30.617Z,27.72
2023-04-26T05:38:01.949Z,27.75
2023-04-26T05:38:33.320Z,27.68
2023-04-26T05:39:04.638Z,27.74
2023-04-26T05:39:35.957Z,27.75
2023-04-26T05:40:07.646Z,27.69
2023-04-26T05:40:38.941Z,27.72
2023-04-26T05:41:10.297Z,27.83
2023-04-26T05:41:41.628Z,27.84
2023-04-26T05:42:12.942Z,27.72
2023-04-26T05:42:44.312Z,27.82
2023-04-26T05:43:15.705Z,27.82
2023-04-26T05:43:47.287Z,27.84
2023-04-26T05:44:18.636Z,27.88
2023-04-26T05:44:49.968Z,27.79
2023-04-26T05:45:21.270Z,27.75
2023-04-26T05:45:52.948Z,27.77
2023-04-26T05:46:24.434Z,27.79
2023-04-26T05:46:55.975Z,27.76
2023-04-26T05:47:27.298Z,27.81
2023-04-26T05:47:58.714Z,27.82
2023-04-26T05:48:30.120Z,27.69
2023-04-26T05:49:01.414Z,27.84
2023-04-26T05:49:32.728Z,27.79
2023-04-26T05:50:04.146Z,27.82
2023-04-26T05:50:35.441Z,27.87
2023-04-26T05:51:06.751Z,27.81
2023-04-26T05:51:38.106Z,27.90
2023-04-26T05:52:09.424Z,27.81
2023-04-26T05:52:40.748Z,27.84
2023-04-26T05:53:12.048Z,27.67
2023-04-26T05:53:43.334Z,27.74
2023-04-26T05:54:14.678Z,27.87
2023-04-26T05:54:46.008Z,27.77
2023-04-26T05:55:17.321Z,27.81
2023-04-26T05:55:48.645Z,27.83
2023-04-26T05:56:19.975Z,27.97
2023-04-26T05:56:51.295Z,27.77
2023-04-26T05:57:22.752Z,27.81
2023-04-26T05:57:54.164Z,27.78
2023-04-26T05:58:25.471Z,27.77
2023-04-26T05:58:57.579Z,27.92
2023-04-26T05:59:28.926Z,27.85
2023-04-26T06:00:00.316Z,27.94
2023-04-26T06:00:31.628Z,27.88
2023-04-26T06:01:02.945Z,27.78
2023-04-26T06:01:34.351Z,27.97
2023-04-26T06:02:05.705Z,27.81
2023-04-26T06:02:37.160Z,27.96
2023-04-26T06:03:08.775Z,27.74
2023-04-26T06:03:40.412Z,27.88
2023-04-26T06:04:12.138Z,27.82
2023-04-26T06:04:43.848Z,27.91
2023-04-26T06:05:15.468Z,27.89
2023-04-26T06:05:47.099Z,27.86
2023-04-26T06:06:18.590Z,27.90
2023-04-26T06:06:49.909Z,28.00
2023-04-26T06:07:21.248Z,27.96
2023-04-26T06:07:52.826Z,27.96
2023-04-26T06:08:24.148Z,27.93
2023-04-26T06:08:55.534Z,28.00
2023-04-26T06:09:26.972Z,27.83
2023-04-26T06:09:58.288Z,28.01
2023-04-26T06:10:29.827Z,28.02
2023-04-26T06:11:01.343Z,28.06
2023-04-26T06:11:32.729Z,28.04
2023-04-26T06:12:04.159Z,27.97
2023-04-26T06:12:35.505Z,28.00
2023-04-26T06:13:06.819Z,28.01
2023-04-26T06:13:38.092Z,28.01
2023-04-26T06:14:19.745Z,28.02
2023-04-26T06:15:00.443Z,28.15
2023-04-26T06:15:31.758Z,28.04
2023-04-26T06:16:03.120Z,28.22
2023-04-26T06:16:34.436Z,28.13
2023-04-26T06:17:05.856Z,28.11
2023-04-26T06:17:37.279Z,27.94
2023-04-26T06:18:08.690Z,28.09
2023-04-26T06:18:40.093Z,28.12
2023-04-26T06:19:11.390Z,28.22
2023-04-26T06:19:42.783Z,28.09
2023-04-26T06:20:14.104Z,28.21
2023-04-26T06:20:46.216Z,28.21
2023-04-26T06:21:17.526Z,27.91
2023-04-26T06:21:48.835Z,28.05
2023-04-26T06:22:20.224Z,27.98
2023-04-26T06:22:51.596Z,28.07
2023-04-26T06:23:22.960Z,28.17
2023-04-26T06:23:54.661Z,28.19
2023-04-26T06:24:26.175Z,28.19
2023-04-26T06:24:57.609Z,28.12
2023-04-26T06:25:28.910Z,28.14
2023-04-26T06:26:00.209Z,28.15
2023-04-26T06:26:31.497Z,28.08
2023-04-26T06:27:02.789Z,28.07
2023-04-26T06:27:34.108Z,28.06
2023-04-26T06:28:05.511Z,28.18
2023-04-26T06:28:36.800Z,28.16
2023-04-26T06:29:08.125Z,28.25
2023-04-26T06:29:39.451Z,28.00
2023-04-26T06:30:10.937Z,28.02
2023-04-26T06:30:42.434Z,28.18
2023-04-26T06:31:13.820Z,28.04
2023-04-26T06:31:45.221Z,28.12
2023-04-26T06:32:16.542Z,28.20
2023-04-26T06:32:47.843Z,28.20
2023-04-26T06:33:19.209Z,28.08
2023-04-26T06:33:50.652Z,28.06
2023-04-26T06:34:22.118Z,28.22
2023-04-26T06:34:53.434Z,28.19
2023-04-26T06:35:24.747Z,28.13
2023-04-26T06:35:56.063Z,28.15
2023-04-26T06:36:27.404Z,28.28
2023-04-26T06:36:58.769Z,27.99
2023-04-26T06:37:30.107Z,28.23
2023-04-26T06:38:01.408Z,28.25
2023-04-26T06:38:32.763Z,28.38
2023-04-26T06:39:04.116Z,28.22
2023-04-26T06:39:35.466Z,28.22
2023-04-26T06:40:07.216Z,28.14
2023-04-26T06:40:38.567Z,28.07
2023-04-26T06:41:09.928Z,28.15
2023-04-26T06:41:41.279Z,28.24
2023-04-26T06:42:12.576Z,28.08
2023-04-26T06:42:43.869Z,28.12
2023-04-26T06:43:15.165Z,28.32
2023-04-26T06:43:46.557Z,28.21
2023-04-26T06:44:17.870Z,28.11
2023-04-26T06:44:49.186Z,28.04
2023-04-26T06:45:20.457Z,28.27
2023-04-26T06:45:51.798Z,28.14
2023-04-26T06:46:23.158Z,28.26
2023-04-26T06:46:54.532Z,28.21
2023-04-26T06:47:25.908Z,28.08